Aérodrome :
LOGIN :

S'inscrire | Disclaimer

   EN    FR    IT 

 










Légende :    VFR   VFR Marginal   IFR   IFR Intensif   IFR Très Intensif
Visi : 
Plafond : 
>= 8 km
>= 3000ft
5 à 8 km
1000 à 3000 ft
1500m à 5 km
500 à 1000 ft
800 à 1500m
200 à 500 ft
< 800m
< 200 ft
Symboles :   Orages  Brouillard  Fortes neiges  Fortes précipitations  Vent > 20 kt
SIGMETs :   Divers  Orages  Givrage  Turbulence  Onde Orograph.  Cendres Volcan.






- Altitude de l'aérodrome : 604 ft
- Code IATA : LCJ


EPLL - Lodz

DERNIER METAR :
  • 030030Z 23006KT 200V270 CAVOK 01/M05 Q1005

METARs EXPIRÉS :
  • 030000Z 23002KT CAVOK 01/M05 Q1005
  • 022330Z 24003KT 9000 NSC 00/M05 Q1005
  • 022300Z 20003KT 8000 NSC 00/M05 Q1005
  • 022230Z 19002KT 6000 NSC 00/M04 Q1005

TAF TAF EPLL
Valide du 03 à 00h jusqu'au 04 à 00h UTC


022330Z 0300/0324 20005KT CAVOK
BECMG 0304/0307 28013KT
TEMPO 0305/0316 27016G31KT
PROB40
TEMPO 0307/0310 -RA BKN014
PROB40
TEMPO 0310/0315 -SHRA SCT020TCU



MET'MAP, la Météo Aéronautique d'un coup d'oeil ! - Copyright ORBIFLY Décembre 2007 - Disclaimer

ORBIFLY MET'MAP TEAM :

Programmation & Développement : Alexandra Zaïnal
Sur une idée originale de : Baudouin d'Aumeries
Assistance à la programmation : Marc-Olivier Méhu
Soutien technique & logistique : Manuel Goepfert

Contact : metmap@orbifly.com




SOURCES & CREDITS :

   NOAA